Terminal Aerodrome Forecast
Issued by NWS

Home | Current Version | Previous Version | Text Only | Print | Product List | Glossary On
Versions: 1 2 3 4 5 6 7 8 9 10 11 12 13 14 15 16 17 18 19 20 21 22 23 24 25 26 27 28 29 30 31 32 33
000
FTUS43 KGRR 291140
TAFMKG
TAF
KMKG 291140Z 2912/3012 12003KT P6SM SKC
      TEMPO 2912/2913 4SM BR
     FM291800 06008KT P6SM BKN120
     FM300000 08006KT P6SM OVC050
     FM300600 08010KT 3SM -RASN BR OVC025=

USA.gov is the U.S. government's official web portal to all federal, state and local government web resources and services.